sensor_id;sensor_type;location;lat;lon;timestamp;pressure;altitude;pressure_sealevel;temperature;humidity
11682;BME280;5897;42.640;23.310;2023-04-22T00:02:22;93590.72;;;9.52;83.80
11682;BME280;5897;42.640;23.310;2023-04-22T00:04:49;93594.34;;;9.62;83.52
11682;BME280;5897;42.640;23.310;2023-04-22T00:07:16;93583.00;;;9.54;83.26
11682;BME280;5897;42.640;23.310;2023-04-22T00:09:43;93583.47;;;9.65;82.34
11682;BME280;5897;42.640;23.310;2023-04-22T00:12:11;93586.06;;;9.69;81.59
11682;BME280;5897;42.640;23.310;2023-04-22T00:14:38;93581.94;;;9.64;82.13
11682;BME280;5897;42.640;23.310;2023-04-22T00:17:05;93585.16;;;9.59;82.56
11682;BME280;5897;42.640;23.310;2023-04-22T00:19:32;93591.09;;;9.54;82.90
11682;BME280;5897;42.640;23.310;2023-04-22T00:21:59;93586.09;;;9.53;82.85
11682;BME280;5897;42.640;23.310;2023-04-22T00:24:26;93582.03;;;9.61;82.04
11682;BME280;5897;42.640;23.310;2023-04-22T00:26:52;93587.06;;;9.46;82.87
11682;BME280;5897;42.640;23.310;2023-04-22T00:29:20;93577.75;;;9.35;83.51
11682;BME280;5897;42.640;23.310;2023-04-22T00:31:47;93583.56;;;9.33;83.65
11682;BME280;5897;42.640;23.310;2023-04-22T00:34:14;93586.56;;;9.35;83.78
11682;BME280;5897;42.640;23.310;2023-04-22T00:36:42;93591.13;;;9.38;83.15
11682;BME280;5897;42.640;23.310;2023-04-22T00:39:08;93583.94;;;9.48;83.29
11682;BME280;5897;42.640;23.310;2023-04-22T00:41:36;93592.84;;;9.32;83.94
11682;BME280;5897;42.640;23.310;2023-04-22T00:44:03;93579.88;;;9.27;84.24
11682;BME280;5897;42.640;23.310;2023-04-22T00:46:33;93582.72;;;9.36;83.81
11682;BME280;5897;42.640;23.310;2023-04-22T00:48:59;93583.38;;;9.40;83.68
11682;BME280;5897;42.640;23.310;2023-04-22T00:51:26;93589.81;;;9.30;84.70
11682;BME280;5897;42.640;23.310;2023-04-22T00:53:53;93594.03;;;9.31;85.11
11682;BME280;5897;42.640;23.310;2023-04-22T00:56:20;93597.19;;;9.42;85.24
11682;BME280;5897;42.640;23.310;2023-04-22T00:58:47;93606.06;;;9.55;84.16
11682;BME280;5897;42.640;23.310;2023-04-22T01:01:14;93601.19;;;9.50;84.67
11682;BME280;5897;42.640;23.310;2023-04-22T01:03:43;93605.19;;;9.46;84.91
11682;BME280;5897;42.640;23.310;2023-04-22T01:06:11;93597.84;;;9.46;85.14
11682;BME280;5897;42.640;23.310;2023-04-22T01:08:39;93600.88;;;9.48;85.44
11682;BME280;5897;42.640;23.310;2023-04-22T01:11:06;93610.16;;;9.47;86.24
11682;BME280;5897;42.640;23.310;2023-04-22T01:13:33;93602.91;;;9.44;86.96
11682;BME280;5897;42.640;23.310;2023-04-22T01:16:00;93599.38;;;9.47;88.01
11682;BME280;5897;42.640;23.310;2023-04-22T01:18:28;93609.97;;;9.54;88.11
11682;BME280;5897;42.640;23.310;2023-04-22T01:20:56;93606.59;;;9.50;88.55
11682;BME280;5897;42.640;23.310;2023-04-22T01:23:24;93603.91;;;9.50;88.94
11682;BME280;5897;42.640;23.310;2023-04-22T01:25:51;93597.97;;;9.55;89.37
11682;BME280;5897;42.640;23.310;2023-04-22T01:28:17;93605.91;;;9.46;89.56
11682;BME280;5897;42.640;23.310;2023-04-22T01:30:44;93601.81;;;9.42;90.20
11682;BME280;5897;42.640;23.310;2023-04-22T01:33:11;93603.75;;;9.41;90.15
11682;BME280;5897;42.640;23.310;2023-04-22T01:35:39;93596.72;;;9.31;89.28
11682;BME280;5897;42.640;23.310;2023-04-22T01:38:07;93604.38;;;9.33;89.75
11682;BME280;5897;42.640;23.310;2023-04-22T01:40:36;93596.91;;;9.24;89.93
11682;BME280;5897;42.640;23.310;2023-04-22T01:43:04;93593.34;;;8.99;90.69
11682;BME280;5897;42.640;23.310;2023-04-22T01:45:31;93594.94;;;8.96;91.55
11682;BME280;5897;42.640;23.310;2023-04-22T01:47:58;93592.91;;;9.00;91.81
11682;BME280;5897;42.640;23.310;2023-04-22T01:50:24;93584.78;;;8.88;92.79
11682;BME280;5897;42.640;23.310;2023-04-22T01:52:51;93574.09;;;8.52;94.43
11682;BME280;5897;42.640;23.310;2023-04-22T01:55:18;93593.78;;;8.65;94.76
11682;BME280;5897;42.640;23.310;2023-04-22T01:57:46;93588.25;;;8.56;95.94
11682;BME280;5897;42.640;23.310;2023-04-22T02:00:13;93587.81;;;8.58;95.73
11682;BME280;5897;42.640;23.310;2023-04-22T02:02:40;93584.88;;;8.68;94.78
11682;BME280;5897;42.640;23.310;2023-04-22T02:05:08;93586.38;;;8.69;94.92
11682;BME280;5897;42.640;23.310;2023-04-22T02:07:34;93589.75;;;8.73;94.87
11682;BME280;5897;42.640;23.310;2023-04-22T02:10:02;93590.66;;;8.83;94.63
11682;BME280;5897;42.640;23.310;2023-04-22T02:12:29;93591.56;;;8.92;94.50
11682;BME280;5897;42.640;23.310;2023-04-22T02:14:58;93587.38;;;8.91;94.23
11682;BME280;5897;42.640;23.310;2023-04-22T02:17:25;93596.03;;;8.99;94.41
11682;BME280;5897;42.640;23.310;2023-04-22T02:19:51;93589.38;;;9.03;94.56
11682;BME280;5897;42.640;23.310;2023-04-22T02:22:18;93592.19;;;9.12;94.32
11682;BME280;5897;42.640;23.310;2023-04-22T02:24:45;93589.25;;;9.23;93.59
11682;BME280;5897;42.640;23.310;2023-04-22T02:27:12;93590.66;;;9.27;92.50
11682;BME280;5897;42.640;23.310;2023-04-22T02:29:39;93588.06;;;9.24;91.95
11682;BME280;5897;42.640;23.310;2023-04-22T02:32:07;93591.84;;;9.26;92.10
11682;BME280;5897;42.640;23.310;2023-04-22T02:34:34;93602.44;;;9.33;91.76
11682;BME280;5897;42.640;23.310;2023-04-22T02:37:00;93599.00;;;9.33;91.84
11682;BME280;5897;42.640;23.310;2023-04-22T02:39:27;93602.00;;;9.35;92.03
11682;BME280;5897;42.640;23.310;2023-04-22T02:41:54;93598.81;;;9.40;91.79
11682;BME280;5897;42.640;23.310;2023-04-22T02:44:20;93600.31;;;9.41;91.78
11682;BME280;5897;42.640;23.310;2023-04-22T02:46:47;93606.97;;;9.36;91.96
11682;BME280;5897;42.640;23.310;2023-04-22T02:49:15;93613.13;;;9.37;91.84
11682;BME280;5897;42.640;23.310;2023-04-22T02:51:42;93603.09;;;9.37;92.11
11682;BME280;5897;42.640;23.310;2023-04-22T02:54:09;93600.59;;;9.30;92.90
11682;BME280;5897;42.640;23.310;2023-04-22T02:56:36;93602.13;;;9.31;92.94
11682;BME280;5897;42.640;23.310;2023-04-22T02:59:02;93604.91;;;9.28;93.06
11682;BME280;5897;42.640;23.310;2023-04-22T03:01:29;93604.13;;;9.27;93.42
11682;BME280;5897;42.640;23.310;2023-04-22T03:03:56;93609.94;;;9.26;93.19
11682;BME280;5897;42.640;23.310;2023-04-22T03:06:24;93613.72;;;9.28;93.41
11682;BME280;5897;42.640;23.310;2023-04-22T03:08:51;93605.53;;;9.32;93.26
11682;BME280;5897;42.640;23.310;2023-04-22T03:11:18;93612.88;;;9.31;92.69
11682;BME280;5897;42.640;23.310;2023-04-22T03:13:45;93620.81;;;9.22;93.03
11682;BME280;5897;42.640;23.310;2023-04-22T03:16:11;93609.47;;;9.15;93.66
11682;BME280;5897;42.640;23.310;2023-04-22T03:18:38;93615.53;;;9.03;93.91
11682;BME280;5897;42.640;23.310;2023-04-22T03:21:06;93612.25;;;8.95;94.29
11682;BME280;5897;42.640;23.310;2023-04-22T03:23:34;93610.25;;;8.83;95.14
11682;BME280;5897;42.640;23.310;2023-04-22T03:26:01;93603.63;;;8.72;95.59
11682;BME280;5897;42.640;23.310;2023-04-22T03:28:27;93607.06;;;8.72;96.34
11682;BME280;5897;42.640;23.310;2023-04-22T03:30:54;93612.31;;;8.79;96.02
11682;BME280;5897;42.640;23.310;2023-04-22T03:33:21;93613.97;;;8.89;96.00
11682;BME280;5897;42.640;23.310;2023-04-22T03:35:48;93616.91;;;8.95;95.12
11682;BME280;5897;42.640;23.310;2023-04-22T03:38:15;93629.09;;;8.99;94.46
11682;BME280;5897;42.640;23.310;2023-04-22T03:40:43;93627.84;;;9.04;94.11
11682;BME280;5897;42.640;23.310;2023-04-22T03:43:10;93634.50;;;8.99;93.69
11682;BME280;5897;42.640;23.310;2023-04-22T03:45:36;93633.91;;;8.92;93.95
11682;BME280;5897;42.640;23.310;2023-04-22T03:48:04;93638.28;;;8.86;94.64
11682;BME280;5897;42.640;23.310;2023-04-22T03:50:30;93633.09;;;8.79;95.26
11682;BME280;5897;42.640;23.310;2023-04-22T03:52:57;93635.19;;;8.87;95.70
11682;BME280;5897;42.640;23.310;2023-04-22T03:55:24;93634.84;;;8.85;95.59
11682;BME280;5897;42.640;23.310;2023-04-22T03:57:52;93627.94;;;8.84;95.50
11682;BME280;5897;42.640;23.310;2023-04-22T04:00:19;93633.50;;;8.77;96.37
11682;BME280;5897;42.640;23.310;2023-04-22T04:02:46;93641.94;;;8.79;96.73
11682;BME280;5897;42.640;23.310;2023-04-22T04:05:12;93642.16;;;8.85;97.43
11682;BME280;5897;42.640;23.310;2023-04-22T04:07:39;93645.38;;;8.96;97.51
11682;BME280;5897;42.640;23.310;2023-04-22T04:10:07;93645.19;;;9.03;97.66
11682;BME280;5897;42.640;23.310;2023-04-22T04:12:34;93643.41;;;9.12;96.67
11682;BME280;5897;42.640;23.310;2023-04-22T04:15:03;93637.34;;;9.08;96.98
11682;BME280;5897;42.640;23.310;2023-04-22T04:17:30;93647.50;;;9.33;96.76
11682;BME280;5897;42.640;23.310;2023-04-22T04:19:57;93648.41;;;9.42;96.14
11682;BME280;5897;42.640;23.310;2023-04-22T04:22:24;93648.44;;;9.55;96.00
11682;BME280;5897;42.640;23.310;2023-04-22T04:24:52;93648.91;;;9.66;95.16
11682;BME280;5897;42.640;23.310;2023-04-22T04:27:20;93648.19;;;9.78;94.78
11682;BME280;5897;42.640;23.310;2023-04-22T04:29:48;93641.09;;;9.84;94.57
11682;BME280;5897;42.640;23.310;2023-04-22T04:32:18;93628.38;;;9.84;93.90
11682;BME280;5897;42.640;23.310;2023-04-22T04:34:44;93648.53;;;10.08;93.61
11682;BME280;5897;42.640;23.310;2023-04-22T04:37:11;93651.38;;;10.17;92.86
11682;BME280;5897;42.640;23.310;2023-04-22T04:39:38;93660.44;;;10.23;92.11
11682;BME280;5897;42.640;23.310;2023-04-22T04:42:06;93657.75;;;10.36;91.99
11682;BME280;5897;42.640;23.310;2023-04-22T04:44:34;93665.13;;;10.48;91.38
11682;BME280;5897;42.640;23.310;2023-04-22T04:47:00;93666.72;;;10.58;90.75
11682;BME280;5897;42.640;23.310;2023-04-22T04:49:29;93671.16;;;10.64;89.85
11682;BME280;5897;42.640;23.310;2023-04-22T04:51:56;93680.66;;;10.69;88.36
11682;BME280;5897;42.640;23.310;2023-04-22T04:54:23;93679.28;;;10.77;87.84
11682;BME280;5897;42.640;23.310;2023-04-22T04:56:50;93685.53;;;10.86;87.11
11682;BME280;5897;42.640;23.310;2023-04-22T04:59:16;93684.13;;;10.82;86.53
11682;BME280;5897;42.640;23.310;2023-04-22T05:01:43;93684.88;;;10.82;86.25
11682;BME280;5897;42.640;23.310;2023-04-22T05:04:10;93686.19;;;10.78;86.64
11682;BME280;5897;42.640;23.310;2023-04-22T05:06:38;93687.94;;;10.84;87.27
11682;BME280;5897;42.640;23.310;2023-04-22T05:09:05;93688.56;;;10.88;87.55
11682;BME280;5897;42.640;23.310;2023-04-22T05:11:32;93688.00;;;11.06;87.38
11682;BME280;5897;42.640;23.310;2023-04-22T05:13:59;93693.41;;;11.18;87.24
11682;BME280;5897;42.640;23.310;2023-04-22T05:16:26;93691.56;;;11.15;86.62
11682;BME280;5897;42.640;23.310;2023-04-22T05:18:53;93686.88;;;11.28;85.36
11682;BME280;5897;42.640;23.310;2023-04-22T05:21:19;93692.81;;;11.36;84.21
11682;BME280;5897;42.640;23.310;2023-04-22T05:23:47;93690.66;;;11.43;83.45
11682;BME280;5897;42.640;23.310;2023-04-22T05:26:14;93695.94;;;11.47;83.83
11682;BME280;5897;42.640;23.310;2023-04-22T05:28:41;93692.34;;;11.62;83.65
11682;BME280;5897;42.640;23.310;2023-04-22T05:31:08;93698.16;;;11.73;83.09
11682;BME280;5897;42.640;23.310;2023-04-22T05:33:35;93682.81;;;11.70;82.70
11682;BME280;5897;42.640;23.310;2023-04-22T05:36:01;93697.34;;;11.85;82.39
11682;BME280;5897;42.640;23.310;2023-04-22T05:38:28;93697.94;;;11.80;82.65
11682;BME280;5897;42.640;23.310;2023-04-22T05:40:56;93701.94;;;11.97;81.83
11682;BME280;5897;42.640;23.310;2023-04-22T05:43:23;93690.94;;;11.92;80.80
11682;BME280;5897;42.640;23.310;2023-04-22T05:45:50;93702.59;;;12.01;80.39
11682;BME280;5897;42.640;23.310;2023-04-22T05:48:17;93699.56;;;11.99;80.85
11682;BME280;5897;42.640;23.310;2023-04-22T05:50:43;93706.06;;;12.23;79.93
11682;BME280;5897;42.640;23.310;2023-04-22T05:53:10;93701.16;;;12.30;79.48
11682;BME280;5897;42.640;23.310;2023-04-22T05:55:37;93708.28;;;12.37;79.49
11682;BME280;5897;42.640;23.310;2023-04-22T05:58:05;93706.50;;;12.43;79.36
11682;BME280;5897;42.640;23.310;2023-04-22T06:00:32;93701.69;;;12.47;79.01
11682;BME280;5897;42.640;23.310;2023-04-22T06:02:58;93697.41;;;12.58;78.57
11682;BME280;5897;42.640;23.310;2023-04-22T06:05:25;93702.41;;;12.69;77.98
11682;BME280;5897;42.640;23.310;2023-04-22T06:07:52;93700.63;;;12.75;77.31
11682;BME280;5897;42.640;23.310;2023-04-22T06:10:19;93702.47;;;12.78;77.42
11682;BME280;5897;42.640;23.310;2023-04-22T06:12:45;93691.50;;;12.90;76.76
11682;BME280;5897;42.640;23.310;2023-04-22T06:15:13;93700.06;;;13.10;75.67
11682;BME280;5897;42.640;23.310;2023-04-22T06:17:40;93698.72;;;13.15;76.17
11682;BME280;5897;42.640;23.310;2023-04-22T06:20:10;93696.38;;;13.35;76.97
11682;BME280;5897;42.640;23.310;2023-04-22T06:22:37;93684.75;;;13.34;76.07
11682;BME280;5897;42.640;23.310;2023-04-22T06:25:04;93688.53;;;13.55;75.73
11682;BME280;5897;42.640;23.310;2023-04-22T06:27:31;93694.91;;;13.79;75.66
11682;BME280;5897;42.640;23.310;2023-04-22T06:29:58;93698.84;;;13.87;73.27
11682;BME280;5897;42.640;23.310;2023-04-22T06:32:26;93706.84;;;13.90;71.50
11682;BME280;5897;42.640;23.310;2023-04-22T06:34:53;93704.72;;;14.03;73.75
11682;BME280;5897;42.640;23.310;2023-04-22T06:37:19;93705.19;;;13.93;72.11
11682;BME280;5897;42.640;23.310;2023-04-22T06:39:46;93709.09;;;14.10;70.45
11682;BME280;5897;42.640;23.310;2023-04-22T06:42:13;93705.03;;;14.05;72.50
11682;BME280;5897;42.640;23.310;2023-04-22T06:44:39;93709.16;;;14.19;71.28
11682;BME280;5897;42.640;23.310;2023-04-22T06:47:06;93715.47;;;14.25;69.99
11682;BME280;5897;42.640;23.310;2023-04-22T06:49:34;93719.38;;;14.24;70.79
11682;BME280;5897;42.640;23.310;2023-04-22T06:52:03;93723.91;;;14.27;67.55
11682;BME280;5897;42.640;23.310;2023-04-22T06:54:30;93721.50;;;14.38;67.54
11682;BME280;5897;42.640;23.310;2023-04-22T06:56:58;93722.53;;;14.49;67.37
11682;BME280;5897;42.640;23.310;2023-04-22T06:59:24;93726.75;;;14.59;66.46
11682;BME280;5897;42.640;23.310;2023-04-22T07:01:51;93721.13;;;14.72;65.42
11682;BME280;5897;42.640;23.310;2023-04-22T07:04:18;93720.81;;;14.79;65.42
11682;BME280;5897;42.640;23.310;2023-04-22T07:06:46;93720.81;;;14.70;65.21
11682;BME280;5897;42.640;23.310;2023-04-22T07:09:13;93721.69;;;14.94;65.62
11682;BME280;5897;42.640;23.310;2023-04-22T07:11:40;93723.19;;;14.95;65.27
11682;BME280;5897;42.640;23.310;2023-04-22T07:14:07;93711.63;;;15.09;64.95
11682;BME280;5897;42.640;23.310;2023-04-22T07:16:33;93728.19;;;14.96;63.43
11682;BME280;5897;42.640;23.310;2023-04-22T07:19:00;93724.44;;;15.17;63.29
11682;BME280;5897;42.640;23.310;2023-04-22T07:21:27;93713.72;;;15.55;62.17
11682;BME280;5897;42.640;23.310;2023-04-22T07:23:55;93727.22;;;15.73;61.73
11682;BME280;5897;42.640;23.310;2023-04-22T07:26:22;93728.84;;;15.80;61.22
11682;BME280;5897;42.640;23.310;2023-04-22T07:28:48;93722.38;;;15.77;60.58
11682;BME280;5897;42.640;23.310;2023-04-22T07:31:15;93725.91;;;15.69;61.94
11682;BME280;5897;42.640;23.310;2023-04-22T07:33:42;93708.03;;;15.91;61.16
11682;BME280;5897;42.640;23.310;2023-04-22T07:36:09;93718.50;;;16.07;59.62
11682;BME280;5897;42.640;23.310;2023-04-22T07:38:36;93723.63;;;16.29;58.08
11682;BME280;5897;42.640;23.310;2023-04-22T07:41:04;93732.06;;;16.40;56.79
11682;BME280;5897;42.640;23.310;2023-04-22T07:43:31;93723.88;;;16.40;56.81
11682;BME280;5897;42.640;23.310;2023-04-22T07:45:57;93728.31;;;16.52;56.17
11682;BME280;5897;42.640;23.310;2023-04-22T07:48:24;93722.06;;;16.75;56.81
11682;BME280;5897;42.640;23.310;2023-04-22T07:50:53;93723.16;;;16.83;55.18
11682;BME280;5897;42.640;23.310;2023-04-22T07:53:20;93725.91;;;16.97;52.33
11682;BME280;5897;42.640;23.310;2023-04-22T07:55:46;93722.41;;;16.82;53.31
11682;BME280;5897;42.640;23.310;2023-04-22T07:58:15;93722.06;;;16.75;55.33
11682;BME280;5897;42.640;23.310;2023-04-22T08:00:42;93713.56;;;16.73;56.65
11682;BME280;5897;42.640;23.310;2023-04-22T08:03:09;93709.34;;;16.72;56.83
11682;BME280;5897;42.640;23.310;2023-04-22T08:05:35;93706.69;;;17.06;55.61
11682;BME280;5897;42.640;23.310;2023-04-22T08:08:02;93704.25;;;17.08;55.72
11682;BME280;5897;42.640;23.310;2023-04-22T08:10:29;93699.78;;;17.40;55.51
11682;BME280;5897;42.640;23.310;2023-04-22T08:12:56;93708.44;;;17.38;54.82
11682;BME280;5897;42.640;23.310;2023-04-22T08:15:24;93695.97;;;17.52;52.35
11682;BME280;5897;42.640;23.310;2023-04-22T08:17:50;93706.34;;;17.82;52.17
11682;BME280;5897;42.640;23.310;2023-04-22T08:20:17;93706.41;;;17.88;51.29
11682;BME280;5897;42.640;23.310;2023-04-22T08:22:44;93705.09;;;18.23;49.88
11682;BME280;5897;42.640;23.310;2023-04-22T08:25:11;93706.28;;;18.37;48.93
11682;BME280;5897;42.640;23.310;2023-04-22T08:27:38;93701.06;;;18.39;49.13
11682;BME280;5897;42.640;23.310;2023-04-22T08:30:06;93695.72;;;18.50;49.67
11682;BME280;5897;42.640;23.310;2023-04-22T08:32:34;93694.00;;;18.78;48.44
11682;BME280;5897;42.640;23.310;2023-04-22T08:35:01;93688.63;;;18.89;47.67
11682;BME280;5897;42.640;23.310;2023-04-22T08:37:28;93690.53;;;19.08;46.82
11682;BME280;5897;42.640;23.310;2023-04-22T08:39:55;93689.72;;;18.97;47.76
11682;BME280;5897;42.640;23.310;2023-04-22T08:42:22;93686.19;;;19.22;45.83
11682;BME280;5897;42.640;23.310;2023-04-22T08:44:49;93681.84;;;19.41;44.41
11682;BME280;5897;42.640;23.310;2023-04-22T08:47:17;93690.06;;;19.41;44.11
11682;BME280;5897;42.640;23.310;2023-04-22T08:49:46;93679.38;;;19.43;42.97
11682;BME280;5897;42.640;23.310;2023-04-22T08:52:13;93676.41;;;19.46;43.81
11682;BME280;5897;42.640;23.310;2023-04-22T08:54:39;93665.41;;;19.10;44.39
11682;BME280;5897;42.640;23.310;2023-04-22T08:57:07;93671.75;;;19.21;45.35
11682;BME280;5897;42.640;23.310;2023-04-22T08:59:35;93661.53;;;19.58;43.53
11682;BME280;5897;42.640;23.310;2023-04-22T09:02:04;93659.38;;;19.73;42.83
11682;BME280;5897;42.640;23.310;2023-04-22T09:04:31;93660.59;;;19.67;44.03
11682;BME280;5897;42.640;23.310;2023-04-22T09:07:00;93661.53;;;19.58;41.80
11682;BME280;5897;42.640;23.310;2023-04-22T09:09:27;93662.69;;;19.88;41.54
11682;BME280;5897;42.640;23.310;2023-04-22T09:11:56;93655.00;;;19.98;39.75
11682;BME280;5897;42.640;23.310;2023-04-22T09:14:23;93652.00;;;19.96;42.28
11682;BME280;5897;42.640;23.310;2023-04-22T09:16:51;93651.13;;;20.15;40.61
11682;BME280;5897;42.640;23.310;2023-04-22T09:19:18;93652.19;;;20.40;39.71
11682;BME280;5897;42.640;23.310;2023-04-22T09:21:48;93646.69;;;20.40;38.72
11682;BME280;5897;42.640;23.310;2023-04-22T09:24:17;93655.41;;;20.38;39.15
11682;BME280;5897;42.640;23.310;2023-04-22T09:26:45;93652.38;;;20.14;39.08
11682;BME280;5897;42.640;23.310;2023-04-22T09:29:14;93645.94;;;20.39;38.59
11682;BME280;5897;42.640;23.310;2023-04-22T09:31:41;93646.50;;;20.71;38.27
11682;BME280;5897;42.640;23.310;2023-04-22T09:34:07;93640.75;;;20.74;38.91
11682;BME280;5897;42.640;23.310;2023-04-22T09:36:34;93639.31;;;20.95;36.18
11682;BME280;5897;42.640;23.310;2023-04-22T09:39:03;93634.56;;;20.90;38.79
11682;BME280;5897;42.640;23.310;2023-04-22T09:41:33;93631.31;;;21.08;36.26
11682;BME280;5897;42.640;23.310;2023-04-22T09:44:02;93629.09;;;20.96;35.36
11682;BME280;5897;42.640;23.310;2023-04-22T09:46:30;93631.78;;;21.18;36.98
11682;BME280;5897;42.640;23.310;2023-04-22T09:48:58;93618.56;;;21.27;35.99
11682;BME280;5897;42.640;23.310;2023-04-22T09:51:25;93631.28;;;21.41;35.20
11682;BME280;5897;42.640;23.310;2023-04-22T09:53:56;93627.72;;;21.63;32.82
11682;BME280;5897;42.640;23.310;2023-04-22T09:59:21;93621.91;;;21.94;30.91
11682;BME280;5897;42.640;23.310;2023-04-22T10:01:49;93625.44;;;21.89;28.41
11682;BME280;5897;42.640;23.310;2023-04-22T10:04:16;93615.97;;;21.84;32.56
11682;BME280;5897;42.640;23.310;2023-04-22T10:06:46;93614.66;;;21.91;34.20
11682;BME280;5897;42.640;23.310;2023-04-22T10:09:14;93610.16;;;21.93;34.66
11682;BME280;5897;42.640;23.310;2023-04-22T10:11:40;93613.53;;;21.48;34.31
11682;BME280;5897;42.640;23.310;2023-04-22T10:14:08;93616.31;;;20.82;35.76
11682;BME280;5897;42.640;23.310;2023-04-22T10:16:41;93609.88;;;19.99;36.22
11682;BME280;5897;42.640;23.310;2023-04-22T10:19:11;93616.13;;;19.94;37.03
11682;BME280;5897;42.640;23.310;2023-04-22T10:21:39;93605.81;;;20.75;35.63
11682;BME280;5897;42.640;23.310;2023-04-22T10:24:08;93616.59;;;20.89;35.08
11682;BME280;5897;42.640;23.310;2023-04-22T10:26:42;93617.31;;;21.01;35.63
11682;BME280;5897;42.640;23.310;2023-04-22T10:29:12;93610.84;;;21.04;35.11
11682;BME280;5897;42.640;23.310;2023-04-22T10:31:43;93613.78;;;21.39;33.43
11682;BME280;5897;42.640;23.310;2023-04-22T10:34:11;93611.25;;;21.68;33.39
11682;BME280;5897;42.640;23.310;2023-04-22T10:37:05;93615.53;;;21.53;33.56
11682;BME280;5897;42.640;23.310;2023-04-22T10:39:32;93613.72;;;21.83;32.34
11682;BME280;5897;42.640;23.310;2023-04-22T10:42:07;93615.19;;;21.84;32.26
11682;BME280;5897;42.640;23.310;2023-04-22T10:44:46;93620.97;;;22.32;31.41
11682;BME280;5897;42.640;23.310;2023-04-22T10:47:25;93613.13;;;22.01;31.54
11682;BME280;5897;42.640;23.310;2023-04-22T10:50:07;93614.34;;;22.05;31.03
11682;BME280;5897;42.640;23.310;2023-04-22T10:52:35;93611.94;;;22.37;31.14
11682;BME280;5897;42.640;23.310;2023-04-22T10:55:02;93607.16;;;22.43;30.73
11682;BME280;5897;42.640;23.310;2023-04-22T10:57:34;93605.34;;;22.56;31.05
11682;BME280;5897;42.640;23.310;2023-04-22T11:00:24;93607.84;;;22.95;29.71
11682;BME280;5897;42.640;23.310;2023-04-22T11:02:54;93604.59;;;22.91;34.38
11682;BME280;5897;42.640;23.310;2023-04-22T11:05:32;93604.97;;;23.41;31.16
11682;BME280;5897;42.640;23.310;2023-04-22T11:08:01;93608.97;;;23.64;28.75
11682;BME280;5897;42.640;23.310;2023-04-22T11:10:33;93599.53;;;24.02;28.16
11682;BME280;5897;42.640;23.310;2023-04-22T11:13:01;93601.50;;;24.25;27.06
11682;BME280;5897;42.640;23.310;2023-04-22T11:15:31;93600.91;;;24.51;27.37
11682;BME280;5897;42.640;23.310;2023-04-22T11:18:02;93593.66;;;24.66;26.45
11682;BME280;5897;42.640;23.310;2023-04-22T11:20:28;93597.63;;;24.71;25.72
11682;BME280;5897;42.640;23.310;2023-04-22T11:22:56;93592.47;;;24.25;25.92
11682;BME280;5897;42.640;23.310;2023-04-22T11:25:24;93599.34;;;24.18;25.63
11682;BME280;5897;42.640;23.310;2023-04-22T11:27:52;93599.63;;;24.52;26.62
11682;BME280;5897;42.640;23.310;2023-04-22T11:30:20;93608.13;;;24.17;25.65
11682;BME280;5897;42.640;23.310;2023-04-22T11:32:48;93619.28;;;23.34;27.18
11682;BME280;5897;42.640;23.310;2023-04-22T11:35:18;93622.31;;;22.66;29.30
11682;BME280;5897;42.640;23.310;2023-04-22T11:37:47;93625.03;;;21.46;31.61
11682;BME280;5897;42.640;23.310;2023-04-22T11:40:16;93631.25;;;20.64;33.63
11682;BME280;5897;42.640;23.310;2023-04-22T11:42:43;93635.22;;;20.30;34.07
11682;BME280;5897;42.640;23.310;2023-04-22T11:45:10;93632.91;;;19.65;35.10
11682;BME280;5897;42.640;23.310;2023-04-22T11:47:38;93643.16;;;19.22;36.29
11682;BME280;5897;42.640;23.310;2023-04-22T11:50:08;93643.25;;;19.86;36.68
11682;BME280;5897;42.640;23.310;2023-04-22T11:52:48;93645.88;;;20.17;38.73
11682;BME280;5897;42.640;23.310;2023-04-22T11:55:18;93648.47;;;20.65;36.22
11682;BME280;5897;42.640;23.310;2023-04-22T11:57:51;93649.69;;;20.42;36.32
11682;BME280;5897;42.640;23.310;2023-04-22T12:00:19;93651.59;;;19.66;37.95
11682;BME280;5897;42.640;23.310;2023-04-22T12:02:55;93665.19;;;19.13;39.95
11682;BME280;5897;42.640;23.310;2023-04-22T12:05:32;93668.56;;;18.72;39.38
11682;BME280;5897;42.640;23.310;2023-04-22T12:08:01;93664.50;;;18.62;40.26
11682;BME280;5897;42.640;23.310;2023-04-22T12:10:28;93670.63;;;18.51;39.93
11682;BME280;5897;42.640;23.310;2023-04-22T12:12:55;93671.16;;;18.55;40.86
11682;BME280;5897;42.640;23.310;2023-04-22T12:15:22;93674.84;;;18.07;40.96
11682;BME280;5897;42.640;23.310;2023-04-22T12:17:49;93675.09;;;17.49;43.25
11682;BME280;5897;42.640;23.310;2023-04-22T12:20:17;93675.38;;;17.71;43.53
11682;BME280;5897;42.640;23.310;2023-04-22T12:22:44;93673.34;;;17.86;42.73
11682;BME280;5897;42.640;23.310;2023-04-22T12:25:16;93665.16;;;17.86;43.05
11682;BME280;5897;42.640;23.310;2023-04-22T12:27:43;93675.50;;;17.82;43.03
11682;BME280;5897;42.640;23.310;2023-04-22T12:30:12;93672.25;;;17.78;43.16
11682;BME280;5897;42.640;23.310;2023-04-22T12:32:39;93672.25;;;17.78;43.60
11682;BME280;5897;42.640;23.310;2023-04-22T12:35:07;93673.56;;;17.48;43.49
11682;BME280;5897;42.640;23.310;2023-04-22T12:37:33;93666.22;;;17.54;44.12
11682;BME280;5897;42.640;23.310;2023-04-22T12:40:00;93676.69;;;17.75;44.62
11682;BME280;5897;42.640;23.310;2023-04-22T12:42:30;93668.63;;;18.06;43.17
11682;BME280;5897;42.640;23.310;2023-04-22T12:44:57;93663.81;;;18.21;42.77
11682;BME280;5897;42.640;23.310;2023-04-22T12:47:24;93662.81;;;18.19;43.15
11682;BME280;5897;42.640;23.310;2023-04-22T12:49:50;93664.25;;;18.14;43.96
11682;BME280;5897;42.640;23.310;2023-04-22T12:52:17;93660.34;;;17.81;43.18
11682;BME280;5897;42.640;23.310;2023-04-22T12:54:44;93658.66;;;17.63;43.47
11682;BME280;5897;42.640;23.310;2023-04-22T12:57:11;93655.91;;;17.29;45.62
11682;BME280;5897;42.640;23.310;2023-04-22T12:59:39;93661.09;;;17.27;46.30
11682;BME280;5897;42.640;23.310;2023-04-22T13:02:06;93659.47;;;17.35;46.42
11682;BME280;5897;42.640;23.310;2023-04-22T13:04:32;93661.94;;;17.87;44.69
11682;BME280;5897;42.640;23.310;2023-04-22T13:06:59;93655.03;;;17.72;45.00
11682;BME280;5897;42.640;23.310;2023-04-22T13:09:26;93651.13;;;17.98;44.58
11682;BME280;5897;42.640;23.310;2023-04-22T13:11:53;93648.84;;;18.17;44.10